Latest Weather Observations for Campania

IDT60901

Issued at 10:15 am EDT Thursday 27 November 2014 (issued every 10 minutes, with the page automatically refreshed every 10 minutes)

About weather observations | Map of Hobart area stations | Latest observations for Hobart area | Other Formats
Station Details ID: 094212 Name: CAMPANIA (KINCORA) Lat: -42.69 Lon: 147.43 Height: 45.0 m
Data from the previous 72 hours. | See also: Recent months at Campania
Date/Time
EDT
Tmp

°C
App
Tmp
°C
Dew
Point
°C
Rel
Hum
%
Delta-T

°C
Wind Press
QNH
hPa
Press
MSL
hPa
Rain
since
9 am
mm
Dir
 
Spd
km/h
Gust
km/h
Spd
kts
Gust
kts
27/10:00am 14.7 9.2 3.8 48 5.0 W 22 35 12 19 - - 0.0
27/09:30am 14.3 8.3 3.2 47 5.0 W 24 35 13 19 - - 0.0
27/09:00am 14.2 8.5 3.1 47 5.0 W 22 30 12 16 - - 0.0
27/08:30am 13.9 8.7 3.4 49 4.7 WSW 20 28 11 15 - - 0.0
27/08:00am 12.8 7.7 3.2 52 4.3 W 19 30 10 16 - - 0.0
27/07:30am 11.7 6.6 3.2 56 3.7 WSW 19 28 10 15 - - 0.0
27/07:00am 11.8 7.6 3.6 57 3.6 W 15 22 8 12 - - 0.0
27/06:30am 10.3 7.2 3.8 64 2.9 NW 9 15 5 8 - - 0.0
27/06:00am 9.6 6.8 2.9 63 2.9 WNW 7 11 4 6 - - 0.0
27/05:30am 9.1 5.5 2.7 64 2.7 NW 11 17 6 9 - - 0.0
27/05:00am 10.0 6.3 2.6 60 3.2 WNW 11 19 6 10 - - 0.0
27/04:30am 10.1 6.1 2.7 60 3.2 WNW 13 20 7 11 - - 0.0
27/04:00am 10.0 5.5 2.4 59 3.2 W 15 20 8 11 - - 0.0
27/03:30am 10.2 4.8 2.6 59 3.3 W 20 28 11 15 - - 0.0
27/03:00am 10.4 5.6 2.7 59 3.3 W 17 22 9 12 - - 0.0
27/02:30am 10.8 6.1 2.9 58 3.4 W 17 24 9 13 - - 0.0
27/02:00am 10.7 6.8 3.3 60 3.2 W 13 17 7 9 - - 0.0
27/01:30am 11.2 6.1 3.0 57 3.6 W 19 26 10 14 - - 0.0
27/01:00am 11.3 7.4 3.3 58 3.5 NW 13 20 7 11 - - 0.0
27/12:30am 11.3 7.3 3.1 57 3.6 NNW 13 17 7 9 - - 0.0
27/12:00am 11.4 6.7 2.9 56 3.7 NNW 17 28 9 15 - - 0.0
 
Date/Time
EDT
Tmp

°C
App
Tmp
°C
Dew
Point
°C
Rel
Hum
%
Delta-T

°C
Wind Press
QNH
hPa
Press
MSL
hPa
Rain
since
9 am
mm
Dir
 
Spd
km/h
Gust
km/h
Spd
kts
Gust
kts
26/11:30pm 11.0 7.0 2.8 57 3.6 NW 13 32 7 17 - - 0.0
26/11:00pm 10.5 6.8 2.6 58 3.4 NNW 11 15 6 8 - - 0.0
26/10:30pm 11.5 6.7 2.8 55 3.8 WNW 17 24 9 13 - - 0.0
26/10:00pm 11.7 7.3 2.7 54 3.9 WNW 15 24 8 13 - - 0.0
26/09:30pm 11.9 6.2 2.9 54 3.9 W 22 28 12 15 - - 0.0
26/09:00pm 12.6 7.4 3.3 53 4.1 W 20 35 11 19 - - 0.0
26/08:30pm 13.0 7.8 3.4 52 4.3 W 20 28 11 15 - - 0.0
26/08:00pm 13.6 6.4 3.1 49 4.7 WSW 30 43 16 23 - - 0.0
26/07:30pm 14.4 8.8 3.2 47 5.0 W 22 39 12 21 - - 0.0
26/07:00pm 14.8 8.0 3.3 46 5.2 WSW 28 46 15 25 - - 0.0
26/06:30pm 14.6 7.5 3.4 47 5.1 WSW 30 41 16 22 - - 0.0
26/06:00pm 15.3 9.8 4.1 47 5.2 W 22 35 12 19 - - 0.0
26/05:30pm 15.5 8.6 4.5 48 5.1 WSW 30 41 16 22 - - 0.0
26/05:00pm 16.1 10.0 4.8 47 5.3 W 26 35 14 19 - - 0.0
26/04:30pm 16.3 10.2 5.0 47 5.4 WSW 26 35 14 19 - - 0.0
26/04:11pm 16.7 10.1 4.4 44 5.8 W 28 46 15 25 - - 0.0
26/04:00pm 17.8 11.8 5.4 44 6.0 SW 26 41 14 22 - - 0.0
26/03:30pm 17.0 12.3 5.0 45 5.7 W 19 35 10 19 - - 0.0
26/03:14pm 16.5 9.3 4.9 46 5.5 WSW 32 50 17 27 - - 0.0
26/03:00pm 18.0 11.3 5.6 44 6.0 WSW 30 43 16 23 - - 0.0
26/02:30pm 14.8 7.7 6.4 57 4.1 W 33 46 18 25 - - 0.0
26/02:27pm 14.9 6.6 6.2 56 4.2 WSW 39 46 21 25 - - 0.0
26/02:00pm 17.7 12.7 6.3 47 5.6 W 22 48 12 26 - - 0.0
26/01:55pm 17.7 11.2 6.3 47 5.6 WSW 30 48 16 26 - - 0.0
26/01:30pm 17.0 12.5 5.9 48 5.4 SW 19 33 10 18 - - 0.0
26/01:00pm 15.3 9.5 6.3 55 4.4 WSW 26 35 14 19 - - 0.0
26/12:30pm 16.2 10.1 4.9 47 5.4 W 26 41 14 22 - - 0.0
26/12:00pm 15.5 10.0 5.7 52 4.7 WNW 24 39 13 21 - - 0.0
26/11:30am 15.6 8.8 4.9 49 5.1 WSW 30 48 16 26 - - 0.0
26/11:19am 15.9 9.1 4.9 48 5.2 WSW 30 48 16 26 - - 0.0
26/11:00am 16.0 9.1 4.7 47 5.3 W 30 44 16 24 - - 0.0
26/10:30am 15.4 7.9 4.5 48 5.1 W 33 52 18 28 - - 0.0
26/10:28am 15.8 8.4 4.8 48 5.2 WSW 33 52 18 28 - - 0.0
26/10:00am 14.6 5.9 4.0 49 4.9 WSW 39 52 21 28 - - 0.0
26/09:49am 15.3 7.9 4.1 47 5.2 W 32 50 17 27 - - 0.0
26/09:30am 13.9 8.4 4.2 52 4.4 W 22 33 12 18 - - 0.0
26/09:00am 13.6 8.2 4.5 54 4.2 W 22 35 12 19 - - 0.0
26/08:30am 13.1 8.7 4.8 57 3.8 W 17 26 9 14 - - 0.0
26/08:00am 12.7 7.6 4.2 56 3.9 W 20 37 11 20 - - 0.0
26/07:30am 12.1 5.4 3.9 57 3.7 W 28 48 15 26 - - 0.0
26/07:25am 12.1 5.5 4.1 58 3.6 W 28 48 15 26 - - 0.0
26/07:00am 12.0 6.8 3.5 56 3.8 WNW 20 30 11 16 - - 0.0
26/06:30am 11.7 5.6 3.0 55 3.8 WNW 24 39 13 21 - - 0.0
26/06:00am 12.5 7.4 2.9 52 4.2 W 19 39 10 21 - - 0.0
26/05:39am 12.7 6.2 4.7 58 3.7 WSW 28 46 15 25 - - 0.0
26/05:30am 13.0 7.4 5.2 59 3.6 W 24 39 13 21 - - 0.0
26/05:00am 13.6 7.3 5.5 58 3.8 W 28 48 15 26 - - 0.0
26/04:58am 13.6 7.3 5.5 58 3.8 W 28 48 15 26 - - 0.0
26/04:30am 13.3 10.1 6.9 65 3.1 W 13 26 7 14 - - 0.0
26/04:00am 13.4 8.6 7.4 67 2.9 WNW 22 32 12 17 - - 0.0
26/03:30am 13.0 10.7 7.5 69 2.7 NW 9 19 5 10 - - 0.0
26/03:00am 13.4 10.3 7.2 66 3.0 NNW 13 24 7 13 - - 0.0
26/02:30am 12.9 11.0 6.5 65 3.1 N 6 11 3 6 - - 0.0
26/02:00am 12.4 9.9 6.5 67 2.8 N 9 15 5 8 - - 0.0
26/01:30am 12.3 8.2 6.4 67 2.8 N 17 26 9 14 - - 0.0
26/01:00am 12.1 8.7 5.9 66 2.9 N 13 20 7 11 - - 0.0
26/12:30am 12.2 8.4 5.8 65 3.0 N 15 22 8 12 - - 0.0
26/12:00am 12.7 8.9 5.8 63 3.2 N 15 20 8 11 - - 0.0
 
Date/Time
EDT
Tmp

°C
App
Tmp
°C
Dew
Point
°C
Rel
Hum
%
Delta-T

°C
Wind Press
QNH
hPa
Press
MSL
hPa
Rain
since
9 am
mm
Dir
 
Spd
km/h
Gust
km/h
Spd
kts
Gust
kts
25/11:30pm 12.6 8.4 5.8 63 3.2 N 17 22 9 12 - - 0.0
25/11:00pm 12.5 8.7 5.7 63 3.2 NNW 15 24 8 13 - - 0.0
25/10:30pm 12.4 8.9 5.3 62 3.3 NNW 13 20 7 11 - - 0.0
25/10:00pm 12.2 8.2 4.9 61 3.4 N 15 24 8 13 - - 0.0
25/09:30pm 12.4 8.0 4.6 59 3.6 NNW 17 24 9 13 - - 0.0
25/09:00pm 12.6 7.2 4.3 57 3.8 NW 22 32 12 17 - - 0.0
25/08:30pm 13.0 8.1 3.9 54 4.1 WNW 19 26 10 14 - - 0.0
25/08:00pm 13.2 8.6 3.8 53 4.3 WNW 17 30 9 16 - - 0.0
25/07:30pm 13.5 7.2 3.8 52 4.4 WNW 26 39 14 21 - - 0.0
25/07:13pm 13.7 7.0 3.8 51 4.5 W 28 46 15 25 - - 0.0
25/07:00pm 14.2 7.7 4.5 52 4.5 W 28 41 15 22 - - 0.0
25/06:52pm 13.6 5.9 5.3 57 3.9 W 35 54 19 29 - - 0.0
25/06:45pm 13.0 4.2 5.4 60 3.6 WSW 41 54 22 29 - - 0.0
25/06:36pm 14.0 6.7 4.6 53 4.4 W 32 50 17 27 - - 0.0
25/06:30pm 14.5 7.9 4.2 50 4.7 W 28 43 15 23 - - 0.0
25/06:01pm 14.5 6.5 3.9 49 4.9 WNW 35 54 19 29 - - 0.0
25/06:00pm 14.5 6.1 3.9 49 4.9 WNW 37 54 20 29 - - 0.0
25/05:34pm 14.2 6.8 4.8 53 4.4 W 33 54 18 29 - - 0.0
25/05:30pm 14.2 6.9 5.3 55 4.2 W 33 46 18 25 - - 0.0
25/05:04pm 15.1 7.2 4.5 49 4.9 WNW 35 54 19 29 - - 0.0
25/05:00pm 15.4 8.0 5.0 50 4.9 WNW 33 50 18 27 - - 0.0
25/04:34pm 15.5 8.8 5.7 52 4.7 W 30 52 16 28 - - 0.0
25/04:30pm 15.5 9.1 6.8 56 4.3 WNW 30 43 16 23 - - 0.0
25/04:00pm 16.5 9.8 5.8 49 5.2 W 30 48 16 26 - - 0.0
25/03:30pm 18.0 11.0 6.8 48 5.6 WNW 33 52 18 28 - - 0.0
25/03:02pm 16.7 10.4 5.9 49 5.2 W 28 50 15 27 - - 0.0
25/03:00pm 17.1 11.4 6.6 50 5.2 W 26 39 14 21 - - 0.0
25/02:46pm 17.3 10.7 6.2 48 5.4 W 30 48 16 26 - - 0.0
25/02:30pm 17.3 10.5 6.8 50 5.2 NW 32 44 17 24 - - 0.0
25/02:01pm 16.9 10.6 5.8 48 5.4 WNW 28 46 15 25 - - 0.0
25/02:00pm 17.0 11.2 6.2 49 5.3 WNW 26 46 14 25 - - 0.0
25/01:30pm 17.2 10.0 5.2 45 5.8 WNW 32 52 17 28 - - 0.0
25/01:24pm 17.1 10.5 4.4 43 6.0 WNW 28 52 15 28 - - 0.0
25/01:00pm 18.3 13.0 5.2 42 6.3 W 22 41 12 22 - - 0.0
25/12:31pm 16.7 9.4 4.7 45 5.7 W 32 50 17 27 - - 0.0
25/12:30pm 17.1 10.0 5.4 46 5.6 WSW 32 48 17 26 - - 0.0
25/12:00pm 16.7 9.0 5.3 47 5.5 WNW 35 65 19 35 - - 0.0
25/11:37am 15.6 9.3 5.5 51 4.8 WNW 28 50 15 27 - - 0.0
25/11:30am 15.4 9.0 5.3 51 4.8 W 28 43 15 23 - - 0.0
25/11:00am 15.4 7.5 4.5 48 5.1 W 35 61 19 33 - - 0.0
25/10:30am 15.3 6.3 4.4 48 5.1 WSW 41 65 22 35 - - 0.0
25/10:00am 14.9 3.6 5.4 53 4.5 WSW 54 76 29 41 - - 0.0
25/09:42am 15.1 4.8 4.8 50 4.8 W 48 82 26 44 - - 0.0
25/09:30am 15.0 6.0 4.7 50 4.8 W 41 61 22 33 - - 0.0
25/09:00am 14.8 8.6 6.1 56 4.2 W 28 59 15 32 - - 2.8
25/08:48am 14.1 6.1 5.5 56 4.1 W 37 57 20 31 - - 2.8
25/08:47am 13.9 5.0 5.0 55 4.2 WNW 41 63 22 34 - - 2.8
25/08:36am 14.1 3.1 4.9 54 4.3 WSW 52 70 28 38 - - 2.8
25/08:30am 13.9 1.6 5.0 55 4.2 WSW 59 70 32 38 - - 2.8
25/08:00am 13.9 6.2 5.3 56 4.0 W 35 57 19 31 - - 2.8
25/07:30am 13.2 4.4 5.4 59 3.7 WSW 41 69 22 37 - - 2.8
25/07:00am 12.8 5.1 5.2 60 3.5 W 35 57 19 31 - - 2.8
25/06:40am 12.5 4.8 5.4 62 3.3 W 35 54 19 29 - - 2.8
25/06:30am 12.3 4.6 5.5 63 3.2 W 35 50 19 27 - - 2.8
25/06:04am 12.1 4.8 5.5 64 3.1 W 33 56 18 30 - - 2.8
25/06:00am 11.9 4.6 5.5 65 3.0 W 33 48 18 26 - - 2.8
25/05:30am 12.1 5.8 5.7 65 3.0 W 28 48 15 26 - - 2.8
25/05:28am 12.1 5.8 5.7 65 3.0 W 28 48 15 26 - - 2.8
25/05:00am 11.9 6.8 5.8 66 2.9 W 22 33 12 18 - - 2.8
25/04:30am 11.7 6.9 5.6 66 2.8 WNW 20 32 11 17 - - 2.8
25/04:00am 11.9 7.7 5.5 65 3.0 WNW 17 26 9 14 - - 2.8
25/03:30am 11.4 7.6 5.7 68 2.6 NNW 15 20 8 11 - - 2.8
25/03:00am 11.7 5.3 5.3 65 3.0 N 28 39 15 21 - - 2.8
25/02:30am 11.7 6.0 5.1 64 3.0 NW 24 44 13 24 - - 2.8
25/02:11am 11.5 3.7 4.9 64 3.0 NW 35 44 19 24 - - 2.8
25/02:00am 10.9 7.2 4.6 65 2.8 NNW 13 22 7 12 - - 2.8
25/01:30am 11.2 5.2 5.1 66 2.8 NW 26 35 14 19 - - 2.8
25/01:00am 11.3 6.9 5.0 65 2.9 NW 17 41 9 22 - - 2.8
25/12:30am 11.4 6.7 5.1 65 2.9 N 19 30 10 16 - - 2.8
25/12:00am 11.0 6.1 5.1 67 2.7 N 20 30 11 16 - - 2.8
 
Date/Time
EDT
Tmp

°C
App
Tmp
°C
Dew
Point
°C
Rel
Hum
%
Delta-T

°C
Wind Press
QNH
hPa
Press
MSL
hPa
Rain
since
9 am
mm
Dir
 
Spd
km/h
Gust
km/h
Spd
kts
Gust
kts
24/11:30pm 11.6 6.7 5.3 65 2.9 NNW 20 33 11 18 - - 2.8
24/11:00pm 11.2 7.4 5.7 69 2.6 NNW 15 30 8 16 - - 2.8
24/10:30pm 12.1 8.6 5.5 64 3.1 NW 13 26 7 14 - - 2.8
24/10:00pm 11.4 8.5 6.7 73 2.2 NW 11 19 6 10 - - 2.8
24/09:30pm 12.6 8.9 7.9 73 2.3 W 17 24 9 13 - - 2.8
24/09:00pm 13.3 10.0 9.5 78 1.9 WNW 17 32 9 17 - - 2.8
24/08:30pm 13.7 12.7 12.3 91 0.8 W 9 17 5 9 - - 2.8
24/08:00pm 13.4 11.9 12.0 91 0.8 NNW 11 15 6 8 - - 2.6
24/07:30pm 13.3 8.4 11.4 88 1.0 WSW 28 44 15 24 - - 2.4
24/07:20pm 13.7 8.8 11.2 85 1.3 WSW 28 41 15 22 - - 2.2
24/07:00pm 14.7 14.5 13.6 93 0.6 NW 7 9 4 5 - - 1.8
24/06:30pm 14.6 12.7 13.1 91 0.8 N 15 19 8 10 - - 1.8
24/06:00pm 14.3 13.3 13.3 94 0.6 NNE 11 15 6 8 - - 1.8
24/05:30pm 14.1 13.8 13.3 95 0.4 NNE 7 9 4 5 - - 1.6
24/05:00pm 14.3 14.1 13.0 92 0.7 NNW 6 9 3 5 - - 1.2
24/04:30pm 14.6 12.6 12.6 88 1.1 WSW 15 20 8 11 - - 1.0
24/04:00pm 16.7 14.7 10.3 66 3.4 N 11 26 6 14 - - 1.0
24/03:30pm 16.4 15.3 10.7 69 3.0 NNW 7 11 4 6 - - 1.0
24/03:00pm 16.4 16.3 10.7 69 3.0 NNE 2 9 1 5 - - 1.0
24/02:30pm 16.3 15.3 10.4 68 3.1 SW 6 9 3 5 - - 1.0
24/02:00pm 15.9 14.8 10.7 71 2.8 NW 7 19 4 10 - - 1.0
24/01:30pm 15.3 13.3 11.5 78 2.0 N 13 22 7 12 - - 1.0
24/01:00pm 15.1 14.2 11.3 78 2.0 NNE 7 11 4 6 - - 1.0
24/12:30pm 14.9 13.9 10.9 77 2.1 N 7 15 4 8 - - 1.0
24/12:00pm 14.5 13.7 11.8 84 1.5 NW 7 9 4 5 - - 1.0
24/11:30am 13.6 10.3 10.9 84 1.4 N 19 22 10 12 - - 1.0
24/11:00am 13.7 10.9 11.2 85 1.3 N 17 22 9 12 - - 0.8
24/10:30am 14.0 11.9 11.2 83 1.5 NNW 13 20 7 11 - - 0.4

Latest Capital City Observations: Canberra | Sydney | Melbourne | Brisbane | Adelaide | Perth | Hobart | Darwin

Other Formats:

Comma delimited format used in spreadsheet applications
http://www.bom.gov.au/fwo/IDT60901/IDT60901.95972.axf

JavaScript Object Notation format (JSON) in row-major order
http://www.bom.gov.au/fwo/IDT60901/IDT60901.95972.json